sensor_id;sensor_type;location;lat;lon;timestamp;pressure;altitude;pressure_sealevel;temperature;humidity
39411;BME280;26579;43.238;23.124;2023-02-13T00:01:39;98815.66;;;4.30;54.50
39411;BME280;26579;43.238;23.124;2023-02-13T00:04:04;98814.06;;;4.26;54.63
39411;BME280;26579;43.238;23.124;2023-02-13T00:06:30;98820.97;;;4.25;55.46
39411;BME280;26579;43.238;23.124;2023-02-13T00:08:56;98831.94;;;4.32;55.38
39411;BME280;26579;43.238;23.124;2023-02-13T00:11:21;98832.00;;;4.30;55.06
39411;BME280;26579;43.238;23.124;2023-02-13T00:13:47;98822.91;;;4.16;55.50
39411;BME280;26579;43.238;23.124;2023-02-13T00:16:13;98821.97;;;4.20;54.95
39411;BME280;26579;43.238;23.124;2023-02-13T00:18:38;98818.53;;;4.19;55.14
39411;BME280;26579;43.238;23.124;2023-02-13T00:21:08;98832.03;;;4.29;55.60
39411;BME280;26579;43.238;23.124;2023-02-13T00:23:35;98828.06;;;4.16;55.94
39411;BME280;26579;43.238;23.124;2023-02-13T00:26:06;98834.94;;;4.17;55.42
39411;BME280;26579;43.238;23.124;2023-02-13T00:28:32;98835.03;;;4.14;55.79
39411;BME280;26579;43.238;23.124;2023-02-13T00:33:29;98845.44;;;4.09;55.54
39411;BME280;26579;43.238;23.124;2023-02-13T00:36:09;98848.94;;;4.06;55.55
39411;BME280;26579;43.238;23.124;2023-02-13T00:38:36;98821.66;;;3.98;55.30
39411;BME280;26579;43.238;23.124;2023-02-13T00:41:02;98831.88;;;4.01;56.03
39411;BME280;26579;43.238;23.124;2023-02-13T00:43:29;98858.56;;;4.00;55.74
39411;BME280;26579;43.238;23.124;2023-02-13T00:45:55;98858.66;;;3.95;55.48
39411;BME280;26579;43.238;23.124;2023-02-13T00:48:27;98861.31;;;3.92;55.61
39411;BME280;26579;43.238;23.124;2023-02-13T00:50:54;98859.72;;;3.88;56.25
39411;BME280;26579;43.238;23.124;2023-02-13T00:53:21;98857.13;;;3.88;56.16
39411;BME280;26579;43.238;23.124;2023-02-13T00:55:47;98865.81;;;3.84;56.10
39411;BME280;26579;43.238;23.124;2023-02-13T00:58:13;98862.50;;;3.79;56.49
39411;BME280;26579;43.238;23.124;2023-02-13T01:00:39;98860.63;;;3.85;56.41
39411;BME280;26579;43.238;23.124;2023-02-13T01:03:05;98858.09;;;3.84;56.51
39411;BME280;26579;43.238;23.124;2023-02-13T01:05:31;98861.63;;;3.80;56.59
39411;BME280;26579;43.238;23.124;2023-02-13T01:07:57;98866.78;;;3.80;56.13
39411;BME280;26579;43.238;23.124;2023-02-13T01:10:23;98868.34;;;3.87;56.03
39411;BME280;26579;43.238;23.124;2023-02-13T01:12:49;98858.88;;;3.86;55.92
39411;BME280;26579;43.238;23.124;2023-02-13T01:15:15;98860.53;;;3.89;55.71
39411;BME280;26579;43.238;23.124;2023-02-13T01:17:41;98860.53;;;3.89;55.89
39411;BME280;26579;43.238;23.124;2023-02-13T01:20:09;98863.72;;;3.98;55.59
39411;BME280;26579;43.238;23.124;2023-02-13T01:22:35;98866.28;;;4.00;55.03
39411;BME280;26579;43.238;23.124;2023-02-13T01:25:01;98844.16;;;3.93;55.11
39411;BME280;26579;43.238;23.124;2023-02-13T01:27:29;98846.31;;;4.08;54.79
39411;BME280;26579;43.238;23.124;2023-02-13T01:29:55;98840.50;;;4.00;54.74
39411;BME280;26579;43.238;23.124;2023-02-13T01:32:23;98839.00;;;3.91;55.10
39411;BME280;26579;43.238;23.124;2023-02-13T01:34:49;98848.31;;;3.97;55.46
39411;BME280;26579;43.238;23.124;2023-02-13T01:37:15;98841.50;;;3.94;55.21
39411;BME280;26579;43.238;23.124;2023-02-13T01:39:41;98846.66;;;3.96;55.16
39411;BME280;26579;43.238;23.124;2023-02-13T01:42:21;98835.66;;;3.88;55.66
39411;BME280;26579;43.238;23.124;2023-02-13T01:45:46;98840.75;;;3.91;55.72
39411;BME280;26579;43.238;23.124;2023-02-13T01:48:07;98843.47;;;3.84;55.53
39411;BME280;26579;43.238;23.124;2023-02-13T01:50:38;98836.75;;;3.79;55.57
39411;BME280;26579;43.238;23.124;2023-02-13T01:53:09;98847.06;;;3.79;55.61
39411;BME280;26579;43.238;23.124;2023-02-13T01:55:49;98833.75;;;3.60;55.60
39411;BME280;26579;43.238;23.124;2023-02-13T01:58:19;98834.81;;;3.51;56.04
39411;BME280;26579;43.238;23.124;2023-02-13T02:00:46;98844.63;;;3.35;56.71
39411;BME280;26579;43.238;23.124;2023-02-13T02:03:20;98839.81;;;3.20;56.86
39411;BME280;26579;43.238;23.124;2023-02-13T02:05:49;98844.84;;;3.25;56.74
39411;BME280;26579;43.238;23.124;2023-02-13T02:08:17;98839.69;;;3.26;57.06
39411;BME280;26579;43.238;23.124;2023-02-13T02:10:50;98830.56;;;3.11;56.56
39411;BME280;26579;43.238;23.124;2023-02-13T02:13:19;98841.63;;;3.15;56.91
39411;BME280;26579;43.238;23.124;2023-02-13T02:15:46;98847.00;;;3.06;57.93
39411;BME280;26579;43.238;23.124;2023-02-13T02:18:22;98818.78;;;3.01;57.61
39411;BME280;26579;43.238;23.124;2023-02-13T02:43:50;98861.25;;;3.21;57.02
39411;BME280;26579;43.238;23.124;2023-02-13T02:46:27;98858.50;;;3.28;57.02
39411;BME280;26579;43.238;23.124;2023-02-13T02:49:03;98856.91;;;3.23;56.60
39411;BME280;26579;43.238;23.124;2023-02-13T02:51:41;98856.19;;;3.17;56.94
39411;BME280;26579;43.238;23.124;2023-02-13T02:54:52;98850.28;;;3.12;57.43
39411;BME280;26579;43.238;23.124;2023-02-13T02:57:30;98837.56;;;3.05;57.59
39411;BME280;26579;43.238;23.124;2023-02-13T02:59:58;98845.25;;;3.06;57.50
39411;BME280;26579;43.238;23.124;2023-02-13T03:02:24;98847.00;;;3.04;57.88
39411;BME280;26579;43.238;23.124;2023-02-13T03:04:52;98848.75;;;3.04;57.31
39411;BME280;26579;43.238;23.124;2023-02-13T03:07:19;98834.25;;;3.00;57.37
39411;BME280;26579;43.238;23.124;2023-02-13T03:09:51;98841.84;;;3.06;57.42
39411;BME280;26579;43.238;23.124;2023-02-13T03:12:22;98836.84;;;3.00;57.03
39411;BME280;26579;43.238;23.124;2023-02-13T03:14:48;98835.81;;;3.07;56.82
39411;BME280;26579;43.238;23.124;2023-02-13T03:17:16;98833.38;;;2.99;57.62
39411;BME280;26579;43.238;23.124;2023-02-13T03:22:40;98840.19;;;3.03;57.55
39411;BME280;26579;43.238;23.124;2023-02-13T03:25:17;98843.59;;;3.04;57.19
39411;BME280;26579;43.238;23.124;2023-02-13T03:28:13;98841.03;;;3.04;57.44
39411;BME280;26579;43.238;23.124;2023-02-13T03:36:14;98831.25;;;2.78;58.39
39411;BME280;26579;43.238;23.124;2023-02-13T03:41:42;98843.31;;;2.76;58.27
39411;BME280;26579;43.238;23.124;2023-02-13T03:46:44;98838.16;;;2.76;58.30
39411;BME280;26579;43.238;23.124;2023-02-13T03:49:22;98822.06;;;2.66;58.03
39411;BME280;26579;43.238;23.124;2023-02-13T03:52:00;98840.09;;;2.64;58.60
39411;BME280;26579;43.238;23.124;2023-02-13T03:54:33;98835.97;;;2.57;58.88
39411;BME280;26579;43.238;23.124;2023-02-13T03:57:02;98823.13;;;2.56;58.55
39411;BME280;26579;43.238;23.124;2023-02-13T03:59:31;98833.50;;;2.51;59.30
39411;BME280;26579;43.238;23.124;2023-02-13T04:04:51;98824.16;;;2.47;59.21
39411;BME280;26579;43.238;23.124;2023-02-13T04:07:20;98831.84;;;2.47;59.10
39411;BME280;26579;43.238;23.124;2023-02-13T04:09:48;98810.69;;;2.36;58.92
39411;BME280;26579;43.238;23.124;2023-02-13T04:12:20;98807.28;;;2.32;59.79
39411;BME280;26579;43.238;23.124;2023-02-13T04:17:45;98825.97;;;2.42;58.83
39411;BME280;26579;43.238;23.124;2023-02-13T04:20:13;98823.28;;;2.48;58.79
39411;BME280;26579;43.238;23.124;2023-02-13T04:22:47;98830.00;;;2.55;58.68
39411;BME280;26579;43.238;23.124;2023-02-13T04:25:15;98823.88;;;2.61;57.98
39411;BME280;26579;43.238;23.124;2023-02-13T04:27:41;98828.13;;;2.63;57.70
39411;BME280;26579;43.238;23.124;2023-02-13T04:30:08;98822.09;;;2.64;57.77
39411;BME280;26579;43.238;23.124;2023-02-13T04:32:34;98829.72;;;2.69;57.80
39411;BME280;26579;43.238;23.124;2023-02-13T04:34:59;98827.03;;;2.75;57.23
39411;BME280;26579;43.238;23.124;2023-02-13T04:37:25;98816.88;;;2.69;57.50
39411;BME280;26579;43.238;23.124;2023-02-13T04:39:51;98830.38;;;2.80;57.56
39411;BME280;26579;43.238;23.124;2023-02-13T04:42:17;98821.22;;;2.65;57.82
39411;BME280;26579;43.238;23.124;2023-02-13T04:44:42;98832.31;;;2.69;57.71
39411;BME280;26579;43.238;23.124;2023-02-13T04:47:08;98847.72;;;2.69;58.13
39411;BME280;26579;43.238;23.124;2023-02-13T04:49:34;98840.22;;;2.58;58.63
39411;BME280;26579;43.238;23.124;2023-02-13T04:51:59;98843.69;;;2.57;58.61
39411;BME280;26579;43.238;23.124;2023-02-13T04:54:25;98840.44;;;2.47;58.99
39411;BME280;26579;43.238;23.124;2023-02-13T04:56:51;98840.50;;;2.43;58.60
39411;BME280;26579;43.238;23.124;2023-02-13T04:59:16;98837.09;;;2.42;58.33
39411;BME280;26579;43.238;23.124;2023-02-13T05:01:42;98843.09;;;2.41;58.17
39411;BME280;26579;43.238;23.124;2023-02-13T05:04:08;98846.63;;;2.37;58.67
39411;BME280;26579;43.238;23.124;2023-02-13T05:06:34;98844.03;;;2.39;58.97
39411;BME280;26579;43.238;23.124;2023-02-13T05:08:59;98854.25;;;2.42;58.60
39411;BME280;26579;43.238;23.124;2023-02-13T05:11:25;98854.38;;;2.34;58.30
39411;BME280;26579;43.238;23.124;2023-02-13T05:13:51;98862.03;;;2.37;58.65
39411;BME280;26579;43.238;23.124;2023-02-13T05:16:16;98866.41;;;2.34;58.55
39411;BME280;26579;43.238;23.124;2023-02-13T05:18:42;98874.28;;;2.23;59.30
39411;BME280;26579;43.238;23.124;2023-02-13T05:21:07;98874.41;;;2.17;59.46
39411;BME280;26579;43.238;23.124;2023-02-13T05:23:33;98877.31;;;1.97;59.76
39411;BME280;26579;43.238;23.124;2023-02-13T05:25:59;98880.75;;;1.96;60.28
39411;BME280;26579;43.238;23.124;2023-02-13T05:28:24;98881.72;;;1.89;60.19
39411;BME280;26579;43.238;23.124;2023-02-13T05:30:51;98884.41;;;1.81;59.99
39411;BME280;26579;43.238;23.124;2023-02-13T05:33:16;98881.06;;;1.76;60.98
39411;BME280;26579;43.238;23.124;2023-02-13T05:35:42;98882.75;;;1.78;61.01
39411;BME280;26579;43.238;23.124;2023-02-13T05:38:08;98889.41;;;1.89;60.24
39411;BME280;26579;43.238;23.124;2023-02-13T05:40:33;98878.41;;;1.82;60.01
39411;BME280;26579;43.238;23.124;2023-02-13T05:42:59;98885.94;;;1.91;59.58
39411;BME280;26579;43.238;23.124;2023-02-13T05:45:25;98887.66;;;1.92;59.94
39411;BME280;26579;43.238;23.124;2023-02-13T05:47:50;98888.34;;;2.02;59.44
39411;BME280;26579;43.238;23.124;2023-02-13T05:50:16;98889.25;;;2.01;59.41
39411;BME280;26579;43.238;23.124;2023-02-13T05:52:42;98887.47;;;2.04;59.61
39411;BME280;26579;43.238;23.124;2023-02-13T05:55:07;98890.69;;;2.16;59.16
39411;BME280;26579;43.238;23.124;2023-02-13T05:57:33;98893.94;;;2.27;58.79
39411;BME280;26579;43.238;23.124;2023-02-13T05:59:59;98896.34;;;2.36;58.39
39411;BME280;26579;43.238;23.124;2023-02-13T06:02:25;98888.53;;;2.42;57.82
39411;BME280;26579;43.238;23.124;2023-02-13T06:04:50;98885.16;;;2.39;57.76
39411;BME280;26579;43.238;23.124;2023-02-13T06:07:16;98895.34;;;2.43;57.81
39411;BME280;26579;43.238;23.124;2023-02-13T06:09:42;98895.41;;;2.42;57.72
39411;BME280;26579;43.238;23.124;2023-02-13T06:12:07;98886.78;;;2.44;57.58
39411;BME280;26579;43.238;23.124;2023-02-13T06:14:33;98891.31;;;2.77;63.07
39411;BME280;26579;43.238;23.124;2023-02-13T06:17:01;98896.75;;;3.05;60.62
39411;BME280;26579;43.238;23.124;2023-02-13T06:19:27;98894.53;;;3.28;57.41
39411;BME280;26579;43.238;23.124;2023-02-13T06:21:52;98899.31;;;3.45;54.84
39411;BME280;26579;43.238;23.124;2023-02-13T06:24:18;98898.50;;;3.45;54.47
39411;BME280;26579;43.238;23.124;2023-02-13T06:26:44;98899.25;;;3.48;54.57
39411;BME280;26579;43.238;23.124;2023-02-13T06:29:09;98891.66;;;3.44;54.62
39411;BME280;26579;43.238;23.124;2023-02-13T06:31:35;98887.88;;;3.58;53.44
39411;BME280;26579;43.238;23.124;2023-02-13T06:34:01;98882.59;;;4.67;50.74
39411;BME280;26579;43.238;23.124;2023-02-13T06:36:27;98883.78;;;5.46;48.13
39411;BME280;26579;43.238;23.124;2023-02-13T06:38:53;98871.38;;;6.64;44.95
39411;BME280;26579;43.238;23.124;2023-02-13T06:41:19;98873.28;;;7.75;42.08
39411;BME280;26579;43.238;23.124;2023-02-13T06:43:44;98872.16;;;8.65;39.72
39411;BME280;26579;43.238;23.124;2023-02-13T06:46:10;98877.81;;;9.13;38.86
39411;BME280;26579;43.238;23.124;2023-02-13T06:48:36;98872.66;;;9.68;37.68
39411;BME280;26579;43.238;23.124;2023-02-13T06:51:01;98874.00;;;9.77;37.23
39411;BME280;26579;43.238;23.124;2023-02-13T06:53:28;98863.63;;;9.94;36.24
39411;BME280;26579;43.238;23.124;2023-02-13T06:55:54;98878.50;;;10.44;35.59
39411;BME280;26579;43.238;23.124;2023-02-13T06:58:21;98878.19;;;10.85;34.74
39411;BME280;26579;43.238;23.124;2023-02-13T07:00:49;98883.66;;;10.96;34.37
39411;BME280;26579;43.238;23.124;2023-02-13T07:03:15;98879.69;;;11.54;33.63
39411;BME280;26579;43.238;23.124;2023-02-13T07:05:41;98874.31;;;11.89;32.78
39411;BME280;26579;43.238;23.124;2023-02-13T07:08:09;98863.88;;;12.49;31.56
39411;BME280;26579;43.238;23.124;2023-02-13T07:10:39;98870.97;;;13.47;30.28
39411;BME280;26579;43.238;23.124;2023-02-13T07:13:05;98871.19;;;13.01;30.57
39411;BME280;26579;43.238;23.124;2023-02-13T07:15:34;98874.44;;;12.90;31.09
39411;BME280;26579;43.238;23.124;2023-02-13T07:18:00;98871.44;;;13.81;30.00
39411;BME280;26579;43.238;23.124;2023-02-13T07:20:26;98868.91;;;14.07;29.62
39411;BME280;26579;43.238;23.124;2023-02-13T07:22:52;98872.53;;;14.31;29.30
39411;BME280;26579;43.238;23.124;2023-02-13T07:25:18;98866.66;;;13.46;29.99
39411;BME280;26579;43.238;23.124;2023-02-13T07:27:44;98882.72;;;12.54;31.68
39411;BME280;26579;43.238;23.124;2023-02-13T07:30:10;98879.09;;;12.57;31.98
39411;BME280;26579;43.238;23.124;2023-02-13T07:32:36;98881.19;;;13.79;30.17
39411;BME280;26579;43.238;23.124;2023-02-13T07:35:03;98878.63;;;13.50;30.45
39411;BME280;26579;43.238;23.124;2023-02-13T07:37:30;98873.53;;;12.91;31.52
39411;BME280;26579;43.238;23.124;2023-02-13T07:39:56;98887.59;;;12.00;32.76
39411;BME280;26579;43.238;23.124;2023-02-13T07:42:21;98879.09;;;13.84;30.50
39411;BME280;26579;43.238;23.124;2023-02-13T07:44:47;98872.75;;;15.67;27.91
39411;BME280;26579;43.238;23.124;2023-02-13T07:47:13;98880.31;;;16.44;26.84
39411;BME280;26579;43.238;23.124;2023-02-13T07:49:39;98882.13;;;15.22;28.11
39411;BME280;26579;43.238;23.124;2023-02-13T07:52:05;98861.84;;;15.73;27.75
39411;BME280;26579;43.238;23.124;2023-02-13T07:54:31;98879.06;;;15.28;28.34
39411;BME280;26579;43.238;23.124;2023-02-13T07:56:57;98870.84;;;14.96;29.22
39411;BME280;26579;43.238;23.124;2023-02-13T07:59:23;98861.38;;;15.19;28.93
39411;BME280;26579;43.238;23.124;2023-02-13T08:01:49;98862.63;;;15.00;29.41
39411;BME280;26579;43.238;23.124;2023-02-13T08:04:15;98864.53;;;14.98;29.17
39411;BME280;26579;43.238;23.124;2023-02-13T08:06:41;98850.03;;;15.05;29.51
39411;BME280;26579;43.238;23.124;2023-02-13T08:09:13;98865.44;;;15.23;29.61
39411;BME280;26579;43.238;23.124;2023-02-13T08:11:42;98861.69;;;15.01;29.52
39411;BME280;26579;43.238;23.124;2023-02-13T08:14:08;98850.34;;;14.49;29.57
39411;BME280;26579;43.238;23.124;2023-02-13T08:16:34;98861.19;;;14.58;29.82
39411;BME280;26579;43.238;23.124;2023-02-13T08:18:59;98858.94;;;15.52;29.05
39411;BME280;26579;43.238;23.124;2023-02-13T08:21:25;98860.03;;;14.87;29.56
39411;BME280;26579;43.238;23.124;2023-02-13T08:23:51;98859.50;;;14.82;29.73
39411;BME280;26579;43.238;23.124;2023-02-13T08:26:17;98830.78;;;14.55;30.23
39411;BME280;26579;43.238;23.124;2023-02-13T08:28:42;98855.69;;;15.12;29.61
39411;BME280;26579;43.238;23.124;2023-02-13T08:31:10;98858.22;;;15.50;28.66
39411;BME280;26579;43.238;23.124;2023-02-13T08:33:36;98857.09;;;16.02;28.10
39411;BME280;26579;43.238;23.124;2023-02-13T08:36:05;98852.78;;;16.94;27.32
39411;BME280;26579;43.238;23.124;2023-02-13T08:38:31;98852.81;;;17.83;25.54
39411;BME280;26579;43.238;23.124;2023-02-13T08:40:57;98853.84;;;19.17;24.32
39411;BME280;26579;43.238;23.124;2023-02-13T08:43:23;98854.75;;;19.37;23.47
39411;BME280;26579;43.238;23.124;2023-02-13T08:45:48;98853.59;;;19.30;23.49
39411;BME280;26579;43.238;23.124;2023-02-13T08:48:15;98855.97;;;20.03;22.61
39411;BME280;26579;43.238;23.124;2023-02-13T08:50:41;98848.09;;;20.89;22.13
39411;BME280;26579;43.238;23.124;2023-02-13T08:53:07;98851.03;;;20.86;21.35
39411;BME280;26579;43.238;23.124;2023-02-13T08:55:33;98846.34;;;21.35;21.06
39411;BME280;26579;43.238;23.124;2023-02-13T08:58:03;98832.50;;;22.04;20.43
39411;BME280;26579;43.238;23.124;2023-02-13T09:00:29;98839.88;;;22.98;19.73
39411;BME280;26579;43.238;23.124;2023-02-13T09:03:00;98850.53;;;22.54;19.63
39411;BME280;26579;43.238;23.124;2023-02-13T09:05:26;98849.94;;;22.25;19.94
39411;BME280;26579;43.238;23.124;2023-02-13T09:07:52;98833.63;;;22.02;19.95
39411;BME280;26579;43.238;23.124;2023-02-13T09:10:17;98834.25;;;21.78;19.64
39411;BME280;26579;43.238;23.124;2023-02-13T09:12:43;98836.41;;;21.46;19.96
39411;BME280;26579;43.238;23.124;2023-02-13T09:15:09;98824.84;;;22.01;19.82
39411;BME280;26579;43.238;23.124;2023-02-13T09:17:35;98825.47;;;21.95;20.06
39411;BME280;26579;43.238;23.124;2023-02-13T09:20:00;98825.78;;;21.74;20.12
39411;BME280;26579;43.238;23.124;2023-02-13T09:22:26;98828.69;;;21.25;20.31
39411;BME280;26579;43.238;23.124;2023-02-13T09:24:53;98838.31;;;20.13;21.51
39411;BME280;26579;43.238;23.124;2023-02-13T09:27:18;98832.66;;;21.12;20.90
39411;BME280;26579;43.238;23.124;2023-02-13T09:29:44;98839.75;;;20.84;20.78
39411;BME280;26579;43.238;23.124;2023-02-13T09:32:09;98827.41;;;21.57;20.61
39411;BME280;26579;43.238;23.124;2023-02-13T09:34:35;98828.16;;;20.94;20.55
39411;BME280;26579;43.238;23.124;2023-02-13T09:37:01;98830.47;;;20.60;21.19
39411;BME280;26579;43.238;23.124;2023-02-13T09:39:26;98816.69;;;21.77;20.27
39411;BME280;26579;43.238;23.124;2023-02-13T09:41:52;98817.53;;;21.77;20.27
39411;BME280;26579;43.238;23.124;2023-02-13T09:44:39;98817.56;;;22.39;19.73
39411;BME280;26579;43.238;23.124;2023-02-13T09:47:38;98817.28;;;22.24;19.70
39411;BME280;26579;43.238;23.124;2023-02-13T09:50:12;98815.69;;;21.78;20.23
39411;BME280;26579;43.238;23.124;2023-02-13T09:52:43;98797.91;;;21.24;20.75
39411;BME280;26579;43.238;23.124;2023-02-13T09:55:33;98805.56;;;21.73;20.05
39411;BME280;26579;43.238;23.124;2023-02-13T10:00:57;98799.81;;;21.05;21.14
39411;BME280;26579;43.238;23.124;2023-02-13T10:03:45;98783.81;;;20.69;21.10
39411;BME280;26579;43.238;23.124;2023-02-13T10:06:21;98780.44;;;21.04;20.35
39411;BME280;26579;43.238;23.124;2023-02-13T10:09:00;98779.69;;;20.27;21.13
39411;BME280;26579;43.238;23.124;2023-02-13T10:17:32;98774.34;;;20.47;21.54
39411;BME280;26579;43.238;23.124;2023-02-13T10:20:07;98765.56;;;19.70;21.79
39411;BME280;26579;43.238;23.124;2023-02-13T10:22:53;98768.94;;;19.22;22.64
39411;BME280;26579;43.238;23.124;2023-02-13T10:25:24;98752.91;;;19.74;21.66
39411;BME280;26579;43.238;23.124;2023-02-13T10:28:09;98759.81;;;19.36;22.84
39411;BME280;26579;43.238;23.124;2023-02-13T10:30:51;98759.44;;;18.69;22.84
39411;BME280;26579;43.238;23.124;2023-02-13T10:33:41;98754.41;;;18.87;23.22
39411;BME280;26579;43.238;23.124;2023-02-13T10:38:39;98758.09;;;17.49;24.80
39411;BME280;26579;43.238;23.124;2023-02-13T11:03:36;98743.94;;;15.81;28.29
39411;BME280;26579;43.238;23.124;2023-02-13T11:06:06;98732.78;;;16.02;28.19
39411;BME280;26579;43.238;23.124;2023-02-13T11:08:35;98739.75;;;16.25;27.83
39411;BME280;26579;43.238;23.124;2023-02-13T11:11:03;98733.53;;;15.69;28.18
39411;BME280;26579;43.238;23.124;2023-02-13T11:14:07;98743.44;;;15.04;29.08
39411;BME280;26579;43.238;23.124;2023-02-13T11:19:30;98735.75;;;14.13;30.05
39411;BME280;26579;43.238;23.124;2023-02-13T11:22:12;98741.06;;;13.73;30.86
39411;BME280;26579;43.238;23.124;2023-02-13T11:24:51;98730.69;;;13.72;30.83
39411;BME280;26579;43.238;23.124;2023-02-13T11:27:23;98731.00;;;13.67;31.03
39411;BME280;26579;43.238;23.124;2023-02-13T11:29:57;98730.88;;;13.56;31.12
39411;BME280;26579;43.238;23.124;2023-02-13T11:32:31;98726.00;;;12.96;32.48
39411;BME280;26579;43.238;23.124;2023-02-13T11:35:44;98722.44;;;13.38;32.65
39411;BME280;26579;43.238;23.124;2023-02-13T11:37:44;98703.56;;;13.60;31.93
39411;BME280;26579;43.238;23.124;2023-02-13T11:40:28;98722.94;;;13.16;33.05
39411;BME280;26579;43.238;23.124;2023-02-13T11:42:55;98714.63;;;12.82;33.36
39411;BME280;26579;43.238;23.124;2023-02-13T11:45:23;98707.69;;;13.23;33.01
39411;BME280;26579;43.238;23.124;2023-02-13T11:47:52;98698.94;;;13.24;32.98
39411;BME280;26579;43.238;23.124;2023-02-13T11:50:25;98694.91;;;12.91;33.70
39411;BME280;26579;43.238;23.124;2023-02-13T11:52:55;98711.25;;;13.36;32.66
39411;BME280;26579;43.238;23.124;2023-02-13T11:55:32;98707.13;;;13.32;32.75
39411;BME280;26579;43.238;23.124;2023-02-13T11:58:02;98711.31;;;13.07;33.33
39411;BME280;26579;43.238;23.124;2023-02-13T12:00:32;98702.81;;;12.62;34.08
39411;BME280;26579;43.238;23.124;2023-02-13T12:02:58;98685.44;;;13.03;34.35
39411;BME280;26579;43.238;23.124;2023-02-13T12:05:26;98690.19;;;13.10;33.60
39411;BME280;26579;43.238;23.124;2023-02-13T12:07:58;98695.00;;;13.31;33.33
39411;BME280;26579;43.238;23.124;2023-02-13T12:10:27;98686.81;;;13.63;33.39
39411;BME280;26579;43.238;23.124;2023-02-13T12:12:55;98687.06;;;13.85;33.73
39411;BME280;26579;43.238;23.124;2023-02-13T12:15:29;98681.66;;;13.48;33.30
39411;BME280;26579;43.238;23.124;2023-02-13T12:20:26;98671.75;;;13.79;33.02
39411;BME280;26579;43.238;23.124;2023-02-13T12:23:11;98661.06;;;14.08;32.79
39411;BME280;26579;43.238;23.124;2023-02-13T12:25:55;98670.38;;;14.37;33.43
39411;BME280;26579;43.238;23.124;2023-02-13T12:36:49;98657.28;;;13.99;31.99
39411;BME280;26579;43.238;23.124;2023-02-13T12:39:32;98652.13;;;13.46;32.33
39411;BME280;26579;43.238;23.124;2023-02-13T12:45:12;98640.31;;;13.53;33.00
39411;BME280;26579;43.238;23.124;2023-02-13T12:48:03;98624.94;;;13.62;31.94
39411;BME280;26579;43.238;23.124;2023-02-13T12:53:18;98623.03;;;13.64;33.05
39411;BME280;26579;43.238;23.124;2023-02-13T13:01:57;98615.00;;;13.92;32.01
39411;BME280;26579;43.238;23.124;2023-02-13T13:04:46;98601.28;;;13.89;32.55
39411;BME280;26579;43.238;23.124;2023-02-13T13:10:11;98597.72;;;13.64;31.60
39411;BME280;26579;43.238;23.124;2023-02-13T13:12:56;98602.53;;;13.45;32.43
39411;BME280;26579;43.238;23.124;2023-02-13T13:15:38;98596.97;;;13.49;32.77
39411;BME280;26579;43.238;23.124;2023-02-13T13:23:32;98598.44;;;13.41;32.19
39411;BME280;26579;43.238;23.124;2023-02-13T13:28:44;98593.44;;;13.63;33.30
39411;BME280;26579;43.238;23.124;2023-02-13T13:31:11;98590.00;;;13.50;32.03
39411;BME280;26579;43.238;23.124;2023-02-13T13:33:45;98588.72;;;13.55;32.93
39411;BME280;26579;43.238;23.124;2023-02-13T13:41:43;98585.47;;;13.77;31.49
39411;BME280;26579;43.238;23.124;2023-02-13T13:48:03;98590.28;;;13.05;32.52
39411;BME280;26579;43.238;23.124;2023-02-13T13:50:34;98586.00;;;13.04;32.95
39411;BME280;26579;43.238;23.124;2023-02-13T13:53:17;98583.94;;;13.22;32.95
39411;BME280;26579;43.238;23.124;2023-02-13T13:58:22;98586.00;;;13.57;31.80
39411;BME280;26579;43.238;23.124;2023-02-13T14:03:40;98584.97;;;13.47;31.90
39411;BME280;26579;43.238;23.124;2023-02-13T14:06:08;98578.16;;;13.57;32.25
39411;BME280;26579;43.238;23.124;2023-02-13T14:11:24;98587.81;;;13.17;31.93
39411;BME280;26579;43.238;23.124;2023-02-13T14:13:51;98586.53;;;13.09;32.67
39411;BME280;26579;43.238;23.124;2023-02-13T14:16:39;98586.63;;;13.08;32.39
39411;BME280;26579;43.238;23.124;2023-02-13T14:21:48;98572.91;;;12.91;32.42
39411;BME280;26579;43.238;23.124;2023-02-13T14:24:17;98586.00;;;13.17;33.39
39411;BME280;26579;43.238;23.124;2023-02-13T14:26:51;98573.06;;;12.88;32.38
39411;BME280;26579;43.238;23.124;2023-02-13T14:29:21;98581.59;;;12.92;32.31
39411;BME280;26579;43.238;23.124;2023-02-13T14:34:30;98576.69;;;12.73;32.52
39411;BME280;26579;43.238;23.124;2023-02-13T14:39:36;98578.47;;;12.73;33.55
39411;BME280;26579;43.238;23.124;2023-02-13T14:42:04;98576.25;;;12.66;32.78
39411;BME280;26579;43.238;23.124;2023-02-13T14:44:48;98558.19;;;12.63;33.07
39411;BME280;26579;43.238;23.124;2023-02-13T14:47:19;98578.69;;;12.69;32.76
39411;BME280;26579;43.238;23.124;2023-02-13T14:49:47;98578.69;;;12.69;33.09
39411;BME280;26579;43.238;23.124;2023-02-13T14:52:18;98573.94;;;12.62;33.73
39411;BME280;26579;43.238;23.124;2023-02-13T14:54:48;98574.47;;;12.67;34.19
39411;BME280;26579;43.238;23.124;2023-02-13T14:57:32;98559.28;;;12.59;34.73
39411;BME280;26579;43.238;23.124;2023-02-13T15:00:03;98573.19;;;12.18;35.49
39411;BME280;26579;43.238;23.124;2023-02-13T15:02:45;98573.56;;;11.84;36.95
39411;BME280;26579;43.238;23.124;2023-02-13T15:05:15;98574.31;;;11.71;36.90
39411;BME280;26579;43.238;23.124;2023-02-13T15:07:46;98580.94;;;11.63;36.41
39411;BME280;26579;43.238;23.124;2023-02-13T15:10:40;98579.31;;;11.46;36.95
39411;BME280;26579;43.238;23.124;2023-02-13T15:15:54;98572.34;;;11.02;37.71
39411;BME280;26579;43.238;23.124;2023-02-13T15:18:27;98583.41;;;10.91;37.96
39411;BME280;26579;43.238;23.124;2023-02-13T15:20:58;98582.41;;;10.78;38.57
39411;BME280;26579;43.238;23.124;2023-02-13T15:23:30;98595.38;;;10.63;38.37
39411;BME280;26579;43.238;23.124;2023-02-13T15:26:01;98589.59;;;10.42;39.20
39411;BME280;26579;43.238;23.124;2023-02-13T15:28:28;98590.81;;;10.19;39.48
39411;BME280;26579;43.238;23.124;2023-02-13T15:33:22;98541.88;;;9.61;39.90
39411;BME280;26579;43.238;23.124;2023-02-13T15:36:02;98578.78;;;9.68;41.01